sensor_id;sensor_type;location;lat;lon;timestamp;P1;durP1;ratioP1;P2;durP2;ratioP2
11427;SDS011;5770;44.504;11.346;2023-07-20T00:01:39;13.65;;;4.63;;
11427;SDS011;5770;44.504;11.346;2023-07-20T00:04:09;10.68;;;4.55;;
11427;SDS011;5770;44.504;11.346;2023-07-20T00:06:36;12.23;;;5.00;;
11427;SDS011;5770;44.504;11.346;2023-07-20T00:09:05;12.48;;;5.75;;
11427;SDS011;5770;44.504;11.346;2023-07-20T00:11:34;14.25;;;5.10;;
11427;SDS011;5770;44.504;11.346;2023-07-20T00:14:02;13.95;;;4.82;;
11427;SDS011;5770;44.504;11.346;2023-07-20T00:16:31;12.13;;;5.10;;
11427;SDS011;5770;44.504;11.346;2023-07-20T00:18:58;14.65;;;5.72;;
11427;SDS011;5770;44.504;11.346;2023-07-20T00:21:25;15.60;;;5.55;;
11427;SDS011;5770;44.504;11.346;2023-07-20T00:23:52;18.67;;;5.13;;
11427;SDS011;5770;44.504;11.346;2023-07-20T00:26:19;14.05;;;5.25;;
11427;SDS011;5770;44.504;11.346;2023-07-20T00:28:48;11.30;;;5.38;;
11427;SDS011;5770;44.504;11.346;2023-07-20T00:31:16;13.80;;;5.30;;
11427;SDS011;5770;44.504;11.346;2023-07-20T00:33:45;22.67;;;6.72;;
11427;SDS011;5770;44.504;11.346;2023-07-20T00:36:11;14.82;;;5.38;;
11427;SDS011;5770;44.504;11.346;2023-07-20T00:38:38;14.80;;;5.80;;
11427;SDS011;5770;44.504;11.346;2023-07-20T00:41:06;13.60;;;5.70;;
11427;SDS011;5770;44.504;11.346;2023-07-20T00:43:33;11.27;;;5.30;;
11427;SDS011;5770;44.504;11.346;2023-07-20T00:46:00;12.23;;;5.47;;
11427;SDS011;5770;44.504;11.346;2023-07-20T00:48:27;14.13;;;5.18;;
11427;SDS011;5770;44.504;11.346;2023-07-20T00:50:56;12.20;;;4.68;;
11427;SDS011;5770;44.504;11.346;2023-07-20T00:53:25;10.98;;;4.55;;
11427;SDS011;5770;44.504;11.346;2023-07-20T00:55:52;8.85;;;4.28;;
11427;SDS011;5770;44.504;11.346;2023-07-20T00:58:19;17.38;;;4.82;;
11427;SDS011;5770;44.504;11.346;2023-07-20T01:00:46;13.80;;;5.13;;
11427;SDS011;5770;44.504;11.346;2023-07-20T01:03:13;11.70;;;4.22;;
11427;SDS011;5770;44.504;11.346;2023-07-20T01:05:42;13.13;;;4.20;;
11427;SDS011;5770;44.504;11.346;2023-07-20T01:08:21;14.27;;;4.30;;
11427;SDS011;5770;44.504;11.346;2023-07-20T01:10:53;12.85;;;4.20;;
11427;SDS011;5770;44.504;11.346;2023-07-20T01:13:25;9.13;;;4.05;;
11427;SDS011;5770;44.504;11.346;2023-07-20T01:15:57;9.82;;;3.80;;
11427;SDS011;5770;44.504;11.346;2023-07-20T01:18:24;12.73;;;4.72;;
11427;SDS011;5770;44.504;11.346;2023-07-20T01:20:51;7.85;;;3.92;;
11427;SDS011;5770;44.504;11.346;2023-07-20T01:26:19;9.07;;;3.30;;
11427;SDS011;5770;44.504;11.346;2023-07-20T01:28:57;8.60;;;3.83;;
11427;SDS011;5770;44.504;11.346;2023-07-20T01:31:32;10.63;;;3.75;;
11427;SDS011;5770;44.504;11.346;2023-07-20T01:34:01;6.05;;;3.58;;
11427;SDS011;5770;44.504;11.346;2023-07-20T01:36:30;8.40;;;3.33;;
11427;SDS011;5770;44.504;11.346;2023-07-20T01:38:59;8.98;;;3.70;;
11427;SDS011;5770;44.504;11.346;2023-07-20T01:41:27;15.75;;;4.53;;
11427;SDS011;5770;44.504;11.346;2023-07-20T01:43:57;6.70;;;3.53;;
11427;SDS011;5770;44.504;11.346;2023-07-20T01:46:25;7.93;;;3.35;;
11427;SDS011;5770;44.504;11.346;2023-07-20T01:48:54;11.38;;;3.88;;
11427;SDS011;5770;44.504;11.346;2023-07-20T01:51:21;5.75;;;3.70;;
11427;SDS011;5770;44.504;11.346;2023-07-20T01:53:48;9.88;;;3.70;;
11427;SDS011;5770;44.504;11.346;2023-07-20T01:56:17;7.35;;;3.80;;
11427;SDS011;5770;44.504;11.346;2023-07-20T01:58:44;5.10;;;3.83;;
11427;SDS011;5770;44.504;11.346;2023-07-20T02:01:11;7.45;;;3.42;;
11427;SDS011;5770;44.504;11.346;2023-07-20T02:03:38;7.40;;;3.67;;
11427;SDS011;5770;44.504;11.346;2023-07-20T02:06:07;7.38;;;3.33;;
11427;SDS011;5770;44.504;11.346;2023-07-20T02:08:34;8.02;;;3.40;;
11427;SDS011;5770;44.504;11.346;2023-07-20T02:11:01;7.57;;;3.50;;
11427;SDS011;5770;44.504;11.346;2023-07-20T02:13:29;7.90;;;3.40;;
11427;SDS011;5770;44.504;11.346;2023-07-20T02:15:56;7.22;;;3.40;;
11427;SDS011;5770;44.504;11.346;2023-07-20T02:18:23;7.22;;;3.33;;
11427;SDS011;5770;44.504;11.346;2023-07-20T02:20:52;11.40;;;3.88;;
11427;SDS011;5770;44.504;11.346;2023-07-20T02:23:20;9.05;;;3.83;;
11427;SDS011;5770;44.504;11.346;2023-07-20T02:25:48;6.57;;;3.53;;
11427;SDS011;5770;44.504;11.346;2023-07-20T02:28:15;9.80;;;3.85;;
11427;SDS011;5770;44.504;11.346;2023-07-20T02:30:42;6.35;;;3.63;;
11427;SDS011;5770;44.504;11.346;2023-07-20T02:33:09;6.70;;;3.67;;
11427;SDS011;5770;44.504;11.346;2023-07-20T02:35:37;10.23;;;4.75;;
11427;SDS011;5770;44.504;11.346;2023-07-20T02:38:04;10.25;;;3.60;;
11427;SDS011;5770;44.504;11.346;2023-07-20T02:40:33;8.80;;;3.60;;
11427;SDS011;5770;44.504;11.346;2023-07-20T02:43:00;5.75;;;3.50;;
11427;SDS011;5770;44.504;11.346;2023-07-20T02:45:27;8.50;;;3.35;;
11427;SDS011;5770;44.504;11.346;2023-07-20T02:47:55;8.30;;;3.65;;
11427;SDS011;5770;44.504;11.346;2023-07-20T02:50:22;6.47;;;3.53;;
11427;SDS011;5770;44.504;11.346;2023-07-20T02:52:49;10.02;;;3.53;;
11427;SDS011;5770;44.504;11.346;2023-07-20T02:55:16;7.80;;;3.55;;
11427;SDS011;5770;44.504;11.346;2023-07-20T02:57:45;10.70;;;3.70;;
11427;SDS011;5770;44.504;11.346;2023-07-20T03:00:13;11.25;;;3.40;;
11427;SDS011;5770;44.504;11.346;2023-07-20T03:02:41;6.82;;;2.83;;
11427;SDS011;5770;44.504;11.346;2023-07-20T03:05:09;7.53;;;3.55;;
11427;SDS011;5770;44.504;11.346;2023-07-20T03:07:36;7.70;;;3.83;;
11427;SDS011;5770;44.504;11.346;2023-07-20T03:10:04;7.55;;;3.20;;
11427;SDS011;5770;44.504;11.346;2023-07-20T03:12:34;8.13;;;3.42;;
11427;SDS011;5770;44.504;11.346;2023-07-20T03:15:03;8.65;;;4.10;;
11427;SDS011;5770;44.504;11.346;2023-07-20T03:17:31;10.05;;;3.63;;
11427;SDS011;5770;44.504;11.346;2023-07-20T03:19:58;6.35;;;3.70;;
11427;SDS011;5770;44.504;11.346;2023-07-20T03:22:25;7.22;;;3.67;;
11427;SDS011;5770;44.504;11.346;2023-07-20T03:24:53;7.65;;;3.90;;
11427;SDS011;5770;44.504;11.346;2023-07-20T03:27:20;8.25;;;3.78;;
11427;SDS011;5770;44.504;11.346;2023-07-20T03:29:47;5.80;;;3.53;;
11427;SDS011;5770;44.504;11.346;2023-07-20T03:32:16;11.63;;;3.95;;
11427;SDS011;5770;44.504;11.346;2023-07-20T03:34:43;8.60;;;3.25;;
11427;SDS011;5770;44.504;11.346;2023-07-20T03:37:11;6.30;;;3.50;;
11427;SDS011;5770;44.504;11.346;2023-07-20T03:39:38;8.98;;;3.53;;
11427;SDS011;5770;44.504;11.346;2023-07-20T03:42:05;6.95;;;3.92;;
11427;SDS011;5770;44.504;11.346;2023-07-20T03:44:33;6.57;;;4.00;;
11427;SDS011;5770;44.504;11.346;2023-07-20T03:47:00;8.93;;;4.05;;
11427;SDS011;5770;44.504;11.346;2023-07-20T03:49:29;5.05;;;3.55;;
11427;SDS011;5770;44.504;11.346;2023-07-20T03:51:57;9.05;;;3.63;;
11427;SDS011;5770;44.504;11.346;2023-07-20T03:54:24;7.95;;;3.70;;
11427;SDS011;5770;44.504;11.346;2023-07-20T03:56:51;7.25;;;3.85;;
11427;SDS011;5770;44.504;11.346;2023-07-20T03:59:19;6.55;;;3.65;;
11427;SDS011;5770;44.504;11.346;2023-07-20T04:01:46;7.22;;;3.85;;
11427;SDS011;5770;44.504;11.346;2023-07-20T04:04:15;11.48;;;3.80;;
11427;SDS011;5770;44.504;11.346;2023-07-20T04:06:44;9.45;;;3.95;;
11427;SDS011;5770;44.504;11.346;2023-07-20T04:09:11;7.00;;;4.15;;
11427;SDS011;5770;44.504;11.346;2023-07-20T04:11:39;8.77;;;4.05;;
11427;SDS011;5770;44.504;11.346;2023-07-20T04:14:06;7.38;;;4.90;;
11427;SDS011;5770;44.504;11.346;2023-07-20T04:16:33;7.00;;;4.53;;
11427;SDS011;5770;44.504;11.346;2023-07-20T04:19:00;7.78;;;4.13;;
11427;SDS011;5770;44.504;11.346;2023-07-20T04:21:27;18.42;;;10.45;;
11427;SDS011;5770;44.504;11.346;2023-07-20T04:23:56;17.63;;;8.75;;
11427;SDS011;5770;44.504;11.346;2023-07-20T04:26:23;7.88;;;4.68;;
11427;SDS011;5770;44.504;11.346;2023-07-20T04:28:50;12.55;;;4.68;;
11427;SDS011;5770;44.504;11.346;2023-07-20T04:31:18;8.05;;;4.00;;
11427;SDS011;5770;44.504;11.346;2023-07-20T04:33:44;8.48;;;3.75;;
11427;SDS011;5770;44.504;11.346;2023-07-20T04:36:12;8.55;;;3.70;;
11427;SDS011;5770;44.504;11.346;2023-07-20T04:38:41;6.55;;;3.78;;
11427;SDS011;5770;44.504;11.346;2023-07-20T04:41:09;8.00;;;3.90;;
11427;SDS011;5770;44.504;11.346;2023-07-20T04:43:40;6.97;;;4.10;;
11427;SDS011;5770;44.504;11.346;2023-07-20T04:46:08;10.25;;;3.97;;
11427;SDS011;5770;44.504;11.346;2023-07-20T04:48:35;10.40;;;4.35;;
11427;SDS011;5770;44.504;11.346;2023-07-20T04:51:02;8.10;;;4.10;;
11427;SDS011;5770;44.504;11.346;2023-07-20T04:53:30;9.35;;;4.18;;
11427;SDS011;5770;44.504;11.346;2023-07-20T04:55:57;7.03;;;4.10;;
11427;SDS011;5770;44.504;11.346;2023-07-20T04:58:25;10.82;;;4.30;;
11427;SDS011;5770;44.504;11.346;2023-07-20T05:00:53;8.90;;;3.88;;
11427;SDS011;5770;44.504;11.346;2023-07-20T05:03:20;7.57;;;3.70;;
11427;SDS011;5770;44.504;11.346;2023-07-20T05:05:47;7.20;;;4.03;;
11427;SDS011;5770;44.504;11.346;2023-07-20T05:08:14;8.60;;;3.95;;
11427;SDS011;5770;44.504;11.346;2023-07-20T05:10:42;9.15;;;3.92;;
11427;SDS011;5770;44.504;11.346;2023-07-20T05:13:09;6.50;;;3.72;;
11427;SDS011;5770;44.504;11.346;2023-07-20T05:15:38;12.07;;;4.20;;
11427;SDS011;5770;44.504;11.346;2023-07-20T05:18:05;8.38;;;4.03;;
11427;SDS011;5770;44.504;11.346;2023-07-20T05:20:33;8.68;;;4.07;;
11427;SDS011;5770;44.504;11.346;2023-07-20T05:23:02;11.55;;;4.18;;
11427;SDS011;5770;44.504;11.346;2023-07-20T05:25:29;10.85;;;4.65;;
11427;SDS011;5770;44.504;11.346;2023-07-20T05:27:56;8.90;;;4.13;;
11427;SDS011;5770;44.504;11.346;2023-07-20T05:30:23;11.25;;;4.40;;
11427;SDS011;5770;44.504;11.346;2023-07-20T05:32:52;11.07;;;4.35;;
11427;SDS011;5770;44.504;11.346;2023-07-20T05:35:19;8.80;;;4.55;;
11427;SDS011;5770;44.504;11.346;2023-07-20T05:37:47;8.93;;;4.47;;
11427;SDS011;5770;44.504;11.346;2023-07-20T05:40:14;6.75;;;4.10;;
11427;SDS011;5770;44.504;11.346;2023-07-20T05:42:44;11.90;;;4.22;;
11427;SDS011;5770;44.504;11.346;2023-07-20T05:45:13;12.52;;;4.57;;
11427;SDS011;5770;44.504;11.346;2023-07-20T05:47:41;16.10;;;5.75;;
11427;SDS011;5770;44.504;11.346;2023-07-20T05:50:10;11.88;;;4.20;;
11427;SDS011;5770;44.504;11.346;2023-07-20T05:52:37;10.20;;;4.18;;
11427;SDS011;5770;44.504;11.346;2023-07-20T05:55:05;10.98;;;4.85;;
11427;SDS011;5770;44.504;11.346;2023-07-20T05:57:33;9.90;;;3.97;;
11427;SDS011;5770;44.504;11.346;2023-07-20T06:00:00;14.15;;;4.28;;
11427;SDS011;5770;44.504;11.346;2023-07-20T06:02:28;14.18;;;4.75;;
11427;SDS011;5770;44.504;11.346;2023-07-20T06:04:55;8.68;;;4.63;;
11427;SDS011;5770;44.504;11.346;2023-07-20T06:07:24;12.90;;;4.63;;
11427;SDS011;5770;44.504;11.346;2023-07-20T06:09:51;12.85;;;4.68;;
11427;SDS011;5770;44.504;11.346;2023-07-20T06:12:18;11.00;;;4.70;;
11427;SDS011;5770;44.504;11.346;2023-07-20T06:14:45;9.15;;;4.47;;
11427;SDS011;5770;44.504;11.346;2023-07-20T06:17:12;14.25;;;4.75;;
11427;SDS011;5770;44.504;11.346;2023-07-20T06:19:40;8.52;;;4.45;;
11427;SDS011;5770;44.504;11.346;2023-07-20T06:22:07;9.23;;;4.20;;
11427;SDS011;5770;44.504;11.346;2023-07-20T06:24:36;10.43;;;4.50;;
11427;SDS011;5770;44.504;11.346;2023-07-20T06:27:03;10.00;;;4.75;;
11427;SDS011;5770;44.504;11.346;2023-07-20T06:29:31;15.27;;;4.18;;
11427;SDS011;5770;44.504;11.346;2023-07-20T06:31:58;7.88;;;4.15;;
11427;SDS011;5770;44.504;11.346;2023-07-20T06:34:25;8.38;;;4.70;;
11427;SDS011;5770;44.504;11.346;2023-07-20T06:36:52;11.43;;;4.85;;
11427;SDS011;5770;44.504;11.346;2023-07-20T06:39:20;8.77;;;4.70;;
11427;SDS011;5770;44.504;11.346;2023-07-20T06:41:49;9.85;;;4.45;;
11427;SDS011;5770;44.504;11.346;2023-07-20T06:44:16;8.93;;;4.75;;
11427;SDS011;5770;44.504;11.346;2023-07-20T06:46:43;12.93;;;4.60;;
11427;SDS011;5770;44.504;11.346;2023-07-20T06:49:14;11.13;;;5.25;;
11427;SDS011;5770;44.504;11.346;2023-07-20T06:51:50;7.88;;;5.15;;
11427;SDS011;5770;44.504;11.346;2023-07-20T06:54:17;10.70;;;5.40;;
11427;SDS011;5770;44.504;11.346;2023-07-20T06:56:44;12.75;;;4.90;;
11427;SDS011;5770;44.504;11.346;2023-07-20T06:59:13;13.52;;;4.78;;
11427;SDS011;5770;44.504;11.346;2023-07-20T07:01:40;9.68;;;4.63;;
11427;SDS011;5770;44.504;11.346;2023-07-20T07:04:07;19.15;;;5.45;;
11427;SDS011;5770;44.504;11.346;2023-07-20T07:06:37;8.40;;;4.60;;
11427;SDS011;5770;44.504;11.346;2023-07-20T07:09:04;8.48;;;4.47;;
11427;SDS011;5770;44.504;11.346;2023-07-20T07:11:33;11.55;;;4.55;;
11427;SDS011;5770;44.504;11.346;2023-07-20T07:14:00;8.75;;;4.47;;
11427;SDS011;5770;44.504;11.346;2023-07-20T07:16:28;9.85;;;5.10;;
11427;SDS011;5770;44.504;11.346;2023-07-20T07:18:55;13.75;;;5.25;;
11427;SDS011;5770;44.504;11.346;2023-07-20T07:21:23;14.07;;;5.03;;
11427;SDS011;5770;44.504;11.346;2023-07-20T07:23:50;11.55;;;4.82;;
11427;SDS011;5770;44.504;11.346;2023-07-20T07:26:22;10.48;;;4.55;;
11427;SDS011;5770;44.504;11.346;2023-07-20T07:28:49;12.07;;;4.95;;
11427;SDS011;5770;44.504;11.346;2023-07-20T07:31:16;11.48;;;4.90;;
11427;SDS011;5770;44.504;11.346;2023-07-20T07:33:45;10.45;;;4.43;;
11427;SDS011;5770;44.504;11.346;2023-07-20T07:36:12;11.68;;;5.15;;
11427;SDS011;5770;44.504;11.346;2023-07-20T07:38:39;10.43;;;4.80;;
11427;SDS011;5770;44.504;11.346;2023-07-20T07:41:07;8.48;;;4.93;;
11427;SDS011;5770;44.504;11.346;2023-07-20T07:43:35;11.73;;;5.15;;
11427;SDS011;5770;44.504;11.346;2023-07-20T07:46:03;14.40;;;5.57;;
11427;SDS011;5770;44.504;11.346;2023-07-20T07:48:30;13.85;;;5.90;;
11427;SDS011;5770;44.504;11.346;2023-07-20T07:50:58;10.88;;;5.45;;
11427;SDS011;5770;44.504;11.346;2023-07-20T07:53:25;13.25;;;5.90;;
11427;SDS011;5770;44.504;11.346;2023-07-20T07:55:53;13.65;;;5.63;;
11427;SDS011;5770;44.504;11.346;2023-07-20T07:58:20;23.13;;;11.93;;
11427;SDS011;5770;44.504;11.346;2023-07-20T08:00:47;14.18;;;6.25;;
11427;SDS011;5770;44.504;11.346;2023-07-20T08:03:14;13.15;;;6.07;;
11427;SDS011;5770;44.504;11.346;2023-07-20T08:05:41;10.07;;;5.88;;
11427;SDS011;5770;44.504;11.346;2023-07-20T08:08:10;14.85;;;5.97;;
11427;SDS011;5770;44.504;11.346;2023-07-20T08:10:37;13.57;;;6.05;;
11427;SDS011;5770;44.504;11.346;2023-07-20T08:13:04;11.50;;;5.55;;
11427;SDS011;5770;44.504;11.346;2023-07-20T08:15:31;16.08;;;6.10;;
11427;SDS011;5770;44.504;11.346;2023-07-20T08:17:59;16.77;;;6.22;;
11427;SDS011;5770;44.504;11.346;2023-07-20T08:20:26;17.50;;;6.13;;
11427;SDS011;5770;44.504;11.346;2023-07-20T08:22:53;15.25;;;6.43;;
11427;SDS011;5770;44.504;11.346;2023-07-20T08:25:22;15.10;;;6.68;;
11427;SDS011;5770;44.504;11.346;2023-07-20T08:27:49;13.63;;;7.18;;
11427;SDS011;5770;44.504;11.346;2023-07-20T08:30:17;15.90;;;7.00;;
11427;SDS011;5770;44.504;11.346;2023-07-20T08:32:44;9.73;;;6.20;;
11427;SDS011;5770;44.504;11.346;2023-07-20T08:35:11;14.60;;;6.20;;
11427;SDS011;5770;44.504;11.346;2023-07-20T08:37:40;26.13;;;16.25;;
11427;SDS011;5770;44.504;11.346;2023-07-20T08:40:07;18.67;;;7.18;;
11427;SDS011;5770;44.504;11.346;2023-07-20T08:42:36;13.75;;;6.85;;
11427;SDS011;5770;44.504;11.346;2023-07-20T08:45:05;10.73;;;5.97;;
11427;SDS011;5770;44.504;11.346;2023-07-20T08:47:33;13.23;;;6.78;;
11427;SDS011;5770;44.504;11.346;2023-07-20T08:50:01;10.73;;;6.78;;
11427;SDS011;5770;44.504;11.346;2023-07-20T08:52:32;12.75;;;6.22;;
11427;SDS011;5770;44.504;11.346;2023-07-20T08:55:00;13.55;;;6.55;;
11427;SDS011;5770;44.504;11.346;2023-07-20T08:57:29;16.13;;;6.88;;
11427;SDS011;5770;44.504;11.346;2023-07-20T09:00:00;13.45;;;6.22;;
11427;SDS011;5770;44.504;11.346;2023-07-20T09:02:29;11.23;;;6.05;;
11427;SDS011;5770;44.504;11.346;2023-07-20T09:04:58;12.45;;;6.32;;
11427;SDS011;5770;44.504;11.346;2023-07-20T09:07:25;15.02;;;7.00;;
11427;SDS011;5770;44.504;11.346;2023-07-20T09:09:52;14.93;;;7.35;;
11427;SDS011;5770;44.504;11.346;2023-07-20T09:12:23;14.07;;;6.38;;
11427;SDS011;5770;44.504;11.346;2023-07-20T09:14:50;14.15;;;6.80;;
11427;SDS011;5770;44.504;11.346;2023-07-20T09:17:19;11.43;;;6.35;;
11427;SDS011;5770;44.504;11.346;2023-07-20T09:19:46;16.15;;;7.00;;
11427;SDS011;5770;44.504;11.346;2023-07-20T09:22:14;13.82;;;6.50;;
11427;SDS011;5770;44.504;11.346;2023-07-20T09:24:42;13.48;;;6.40;;
11427;SDS011;5770;44.504;11.346;2023-07-20T09:27:09;14.82;;;6.18;;
11427;SDS011;5770;44.504;11.346;2023-07-20T09:29:46;12.50;;;6.50;;
11427;SDS011;5770;44.504;11.346;2023-07-20T09:32:14;13.07;;;7.05;;
11427;SDS011;5770;44.504;11.346;2023-07-20T09:34:47;12.30;;;6.88;;
11427;SDS011;5770;44.504;11.346;2023-07-20T09:37:14;18.15;;;6.70;;
11427;SDS011;5770;44.504;11.346;2023-07-20T09:39:46;10.57;;;7.10;;
11427;SDS011;5770;44.504;11.346;2023-07-20T09:42:14;15.32;;;7.43;;
11427;SDS011;5770;44.504;11.346;2023-07-20T09:44:43;16.17;;;7.43;;
11427;SDS011;5770;44.504;11.346;2023-07-20T09:47:10;14.05;;;6.80;;
11427;SDS011;5770;44.504;11.346;2023-07-20T09:49:39;18.35;;;6.97;;
11427;SDS011;5770;44.504;11.346;2023-07-20T09:52:08;16.08;;;6.85;;
11427;SDS011;5770;44.504;11.346;2023-07-20T09:54:37;12.40;;;6.75;;
11427;SDS011;5770;44.504;11.346;2023-07-20T09:57:05;11.68;;;6.80;;
11427;SDS011;5770;44.504;11.346;2023-07-20T09:59:33;10.63;;;6.97;;
11427;SDS011;5770;44.504;11.346;2023-07-20T10:02:01;16.77;;;7.00;;
11427;SDS011;5770;44.504;11.346;2023-07-20T10:04:29;11.30;;;7.05;;
11427;SDS011;5770;44.504;11.346;2023-07-20T10:06:56;13.35;;;6.47;;
11427;SDS011;5770;44.504;11.346;2023-07-20T10:09:28;14.43;;;6.97;;
11427;SDS011;5770;44.504;11.346;2023-07-20T10:11:57;15.23;;;7.25;;
11427;SDS011;5770;44.504;11.346;2023-07-20T10:14:25;24.52;;;7.78;;
11427;SDS011;5770;44.504;11.346;2023-07-20T10:16:58;16.65;;;7.40;;
11427;SDS011;5770;44.504;11.346;2023-07-20T10:19:29;13.45;;;7.28;;
11427;SDS011;5770;44.504;11.346;2023-07-20T10:22:03;10.65;;;7.15;;
11427;SDS011;5770;44.504;11.346;2023-07-20T10:24:32;13.60;;;7.78;;
11427;SDS011;5770;44.504;11.346;2023-07-20T10:27:00;10.88;;;7.18;;
11427;SDS011;5770;44.504;11.346;2023-07-20T10:29:27;16.27;;;7.47;;
11427;SDS011;5770;44.504;11.346;2023-07-20T10:31:56;13.10;;;7.22;;
11427;SDS011;5770;44.504;11.346;2023-07-20T10:34:24;12.23;;;7.18;;
11427;SDS011;5770;44.504;11.346;2023-07-20T10:36:51;13.02;;;7.25;;
11427;SDS011;5770;44.504;11.346;2023-07-20T10:39:22;17.98;;;7.70;;
11427;SDS011;5770;44.504;11.346;2023-07-20T10:41:57;16.58;;;7.32;;
11427;SDS011;5770;44.504;11.346;2023-07-20T10:44:26;15.57;;;7.90;;
11427;SDS011;5770;44.504;11.346;2023-07-20T10:46:58;14.35;;;7.47;;
11427;SDS011;5770;44.504;11.346;2023-07-20T10:49:26;17.98;;;7.75;;
11427;SDS011;5770;44.504;11.346;2023-07-20T10:51:56;14.52;;;7.38;;
11427;SDS011;5770;44.504;11.346;2023-07-20T10:54:34;14.07;;;7.18;;
11427;SDS011;5770;44.504;11.346;2023-07-20T10:59:48;16.52;;;7.90;;
11427;SDS011;5770;44.504;11.346;2023-07-20T11:02:17;14.40;;;8.10;;
11427;SDS011;5770;44.504;11.346;2023-07-20T11:04:45;16.63;;;7.55;;
11427;SDS011;5770;44.504;11.346;2023-07-20T11:07:15;11.57;;;7.65;;
11427;SDS011;5770;44.504;11.346;2023-07-20T11:09:42;17.90;;;8.00;;
11427;SDS011;5770;44.504;11.346;2023-07-20T11:12:10;13.02;;;7.82;;
11427;SDS011;5770;44.504;11.346;2023-07-20T11:14:39;17.60;;;8.13;;
11427;SDS011;5770;44.504;11.346;2023-07-20T11:17:12;15.15;;;7.40;;
11427;SDS011;5770;44.504;11.346;2023-07-20T11:19:39;13.88;;;7.70;;
11427;SDS011;5770;44.504;11.346;2023-07-20T11:22:07;17.27;;;8.40;;
11427;SDS011;5770;44.504;11.346;2023-07-20T11:24:37;20.98;;;8.38;;
11427;SDS011;5770;44.504;11.346;2023-07-20T11:27:05;14.60;;;8.23;;
11427;SDS011;5770;44.504;11.346;2023-07-20T11:29:32;14.82;;;7.93;;
11427;SDS011;5770;44.504;11.346;2023-07-20T11:32:00;21.52;;;7.95;;
11427;SDS011;5770;44.504;11.346;2023-07-20T11:34:29;18.17;;;7.15;;
11427;SDS011;5770;44.504;11.346;2023-07-20T11:36:57;14.20;;;7.68;;
11427;SDS011;5770;44.504;11.346;2023-07-20T11:39:24;12.90;;;7.70;;
11427;SDS011;5770;44.504;11.346;2023-07-20T11:41:52;14.93;;;7.85;;
11427;SDS011;5770;44.504;11.346;2023-07-20T11:44:21;22.30;;;8.10;;
11427;SDS011;5770;44.504;11.346;2023-07-20T11:46:53;13.35;;;7.70;;
11427;SDS011;5770;44.504;11.346;2023-07-20T11:49:26;17.90;;;8.27;;
11427;SDS011;5770;44.504;11.346;2023-07-20T11:51:55;14.93;;;6.72;;
11427;SDS011;5770;44.504;11.346;2023-07-20T11:54:23;19.30;;;8.00;;
11427;SDS011;5770;44.504;11.346;2023-07-20T11:56:53;13.18;;;7.55;;
11427;SDS011;5770;44.504;11.346;2023-07-20T11:59:20;18.52;;;8.27;;
11427;SDS011;5770;44.504;11.346;2023-07-20T12:01:48;14.73;;;7.40;;
11427;SDS011;5770;44.504;11.346;2023-07-20T12:04:15;16.40;;;7.85;;
11427;SDS011;5770;44.504;11.346;2023-07-20T12:06:42;14.85;;;7.80;;
11427;SDS011;5770;44.504;11.346;2023-07-20T12:09:14;13.07;;;8.48;;
11427;SDS011;5770;44.504;11.346;2023-07-20T12:11:43;11.73;;;7.90;;
11427;SDS011;5770;44.504;11.346;2023-07-20T12:14:11;13.10;;;7.85;;
11427;SDS011;5770;44.504;11.346;2023-07-20T12:16:37;17.60;;;8.32;;
11427;SDS011;5770;44.504;11.346;2023-07-20T12:19:05;15.27;;;8.05;;
11427;SDS011;5770;44.504;11.346;2023-07-20T12:21:33;16.80;;;8.02;;
11427;SDS011;5770;44.504;11.346;2023-07-20T12:24:01;12.48;;;7.43;;
11427;SDS011;5770;44.504;11.346;2023-07-20T12:26:30;19.10;;;8.77;;
11427;SDS011;5770;44.504;11.346;2023-07-20T12:28:58;14.55;;;8.15;;
11427;SDS011;5770;44.504;11.346;2023-07-20T12:31:25;16.75;;;8.48;;
11427;SDS011;5770;44.504;11.346;2023-07-20T12:33:53;17.13;;;7.85;;
11427;SDS011;5770;44.504;11.346;2023-07-20T12:36:21;13.70;;;8.23;;
11427;SDS011;5770;44.504;11.346;2023-07-20T12:38:48;15.90;;;7.63;;
11427;SDS011;5770;44.504;11.346;2023-07-20T12:41:15;16.40;;;9.68;;
11427;SDS011;5770;44.504;11.346;2023-07-20T12:43:44;15.27;;;8.40;;
11427;SDS011;5770;44.504;11.346;2023-07-20T12:46:12;14.30;;;8.23;;
11427;SDS011;5770;44.504;11.346;2023-07-20T12:48:40;18.45;;;8.02;;
11427;SDS011;5770;44.504;11.346;2023-07-20T12:51:08;19.27;;;8.50;;
11427;SDS011;5770;44.504;11.346;2023-07-20T12:53:37;10.93;;;8.65;;
11427;SDS011;5770;44.504;11.346;2023-07-20T12:56:04;13.88;;;8.88;;
11427;SDS011;5770;44.504;11.346;2023-07-20T12:58:32;13.85;;;8.52;;
11427;SDS011;5770;44.504;11.346;2023-07-20T13:01:01;16.52;;;8.00;;
11427;SDS011;5770;44.504;11.346;2023-07-20T13:03:28;15.20;;;8.38;;
11427;SDS011;5770;44.504;11.346;2023-07-20T13:05:56;13.27;;;8.07;;
11427;SDS011;5770;44.504;11.346;2023-07-20T13:08:24;15.95;;;8.63;;
11427;SDS011;5770;44.504;11.346;2023-07-20T13:10:52;15.40;;;7.80;;
11427;SDS011;5770;44.504;11.346;2023-07-20T13:13:19;16.10;;;8.20;;
11427;SDS011;5770;44.504;11.346;2023-07-20T13:15:47;20.73;;;9.48;;
11427;SDS011;5770;44.504;11.346;2023-07-20T13:18:16;16.38;;;8.48;;
11427;SDS011;5770;44.504;11.346;2023-07-20T13:20:44;16.48;;;8.25;;
11427;SDS011;5770;44.504;11.346;2023-07-20T13:23:14;15.35;;;7.93;;
11427;SDS011;5770;44.504;11.346;2023-07-20T13:25:41;16.58;;;8.18;;
11427;SDS011;5770;44.504;11.346;2023-07-20T13:28:09;18.23;;;8.13;;
11427;SDS011;5770;44.504;11.346;2023-07-20T13:30:36;15.60;;;8.05;;
11427;SDS011;5770;44.504;11.346;2023-07-20T13:33:06;20.55;;;8.43;;
11427;SDS011;5770;44.504;11.346;2023-07-20T13:35:34;14.77;;;7.15;;
11427;SDS011;5770;44.504;11.346;2023-07-20T13:38:02;14.90;;;7.00;;
11427;SDS011;5770;44.504;11.346;2023-07-20T13:40:30;11.40;;;7.60;;
11427;SDS011;5770;44.504;11.346;2023-07-20T13:42:57;20.77;;;8.43;;
11427;SDS011;5770;44.504;11.346;2023-07-20T13:45:25;18.35;;;8.38;;
11427;SDS011;5770;44.504;11.346;2023-07-20T13:47:52;13.98;;;7.90;;
11427;SDS011;5770;44.504;11.346;2023-07-20T13:50:19;19.35;;;8.35;;
11427;SDS011;5770;44.504;11.346;2023-07-20T13:52:49;16.40;;;8.13;;
11427;SDS011;5770;44.504;11.346;2023-07-20T13:55:16;18.05;;;8.50;;
11427;SDS011;5770;44.504;11.346;2023-07-20T13:57:44;14.38;;;7.60;;
11427;SDS011;5770;44.504;11.346;2023-07-20T14:00:12;11.85;;;7.50;;
11427;SDS011;5770;44.504;11.346;2023-07-20T14:02:41;10.23;;;7.63;;
11427;SDS011;5770;44.504;11.346;2023-07-20T14:05:09;17.60;;;7.90;;
11427;SDS011;5770;44.504;11.346;2023-07-20T14:07:37;16.42;;;8.10;;
11427;SDS011;5770;44.504;11.346;2023-07-20T14:10:10;14.82;;;7.82;;
11427;SDS011;5770;44.504;11.346;2023-07-20T14:12:38;16.55;;;8.63;;
11427;SDS011;5770;44.504;11.346;2023-07-20T14:15:06;18.70;;;7.93;;
11427;SDS011;5770;44.504;11.346;2023-07-20T14:17:33;17.05;;;7.75;;
11427;SDS011;5770;44.504;11.346;2023-07-20T14:20:01;16.65;;;7.75;;
11427;SDS011;5770;44.504;11.346;2023-07-20T14:22:33;18.40;;;8.10;;
11427;SDS011;5770;44.504;11.346;2023-07-20T14:25:01;14.38;;;7.72;;
11427;SDS011;5770;44.504;11.346;2023-07-20T14:27:30;15.20;;;7.32;;
11427;SDS011;5770;44.504;11.346;2023-07-20T14:29:57;15.77;;;7.97;;
11427;SDS011;5770;44.504;11.346;2023-07-20T14:32:24;21.20;;;7.65;;
11427;SDS011;5770;44.504;11.346;2023-07-20T14:34:52;16.23;;;7.72;;
11427;SDS011;5770;44.504;11.346;2023-07-20T14:37:19;14.52;;;8.07;;
11427;SDS011;5770;44.504;11.346;2023-07-20T14:39:47;15.35;;;7.57;;
11427;SDS011;5770;44.504;11.346;2023-07-20T14:42:17;14.00;;;8.13;;
11427;SDS011;5770;44.504;11.346;2023-07-20T14:44:46;14.50;;;8.00;;
11427;SDS011;5770;44.504;11.346;2023-07-20T14:47:13;17.33;;;7.43;;
11427;SDS011;5770;44.504;11.346;2023-07-20T14:49:44;14.60;;;7.88;;